createdAt,value
2019-05-26T00:01:43.175Z,19.41
2019-05-26T00:05:47.423Z,19.36
2019-05-26T00:09:51.644Z,19.35
2019-05-26T00:13:55.878Z,19.31
2019-05-26T00:18:00.082Z,19.25
2019-05-26T00:22:04.402Z,19.25
2019-05-26T00:26:08.641Z,19.26
2019-05-26T00:30:13.614Z,19.27
2019-05-26T00:34:17.876Z,19.29
2019-05-26T00:38:22.182Z,19.27
2019-05-26T00:42:26.469Z,19.28
2019-05-26T00:46:30.745Z,19.27
2019-05-26T00:50:35.246Z,19.20
2019-05-26T00:54:39.579Z,19.19
2019-05-26T00:58:43.800Z,19.19
2019-05-26T01:02:48.058Z,19.19
2019-05-26T01:06:52.363Z,19.14
2019-05-26T01:10:56.656Z,19.08
2019-05-26T01:15:00.937Z,19.05
2019-05-26T01:19:05.344Z,19.03
2019-05-26T01:23:09.545Z,19.04
2019-05-26T01:27:13.930Z,18.98
2019-05-26T01:31:18.168Z,18.97
2019-05-26T01:35:22.384Z,18.96
2019-05-26T01:39:26.763Z,18.96
2019-05-26T01:43:31.302Z,18.95
2019-05-26T01:47:35.551Z,18.96
2019-05-26T01:51:39.771Z,18.99
2019-05-26T01:55:43.963Z,18.99
2019-05-26T01:59:48.199Z,18.96
2019-05-26T02:03:52.528Z,18.96
2019-05-26T02:07:56.789Z,18.95
2019-05-26T02:12:01.184Z,18.94
2019-05-26T02:16:05.967Z,18.90
2019-05-26T02:20:11.259Z,18.84
2019-05-26T02:24:15.633Z,18.80
2019-05-26T02:28:20.014Z,18.80
2019-05-26T02:32:24.242Z,18.80
2019-05-26T02:36:28.484Z,18.80
2019-05-26T02:40:32.731Z,18.81
2019-05-26T02:44:36.984Z,18.81
2019-05-26T02:48:41.232Z,18.83
2019-05-26T02:52:45.400Z,18.80
2019-05-26T02:56:49.728Z,18.76
2019-05-26T03:00:53.974Z,18.71
2019-05-26T03:04:58.211Z,18.67
2019-05-26T03:09:21.763Z,18.64
2019-05-26T03:13:14.569Z,18.61
2019-05-26T03:17:19.804Z,18.57
2019-05-26T03:21:27.496Z,18.57
2019-05-26T03:25:33.782Z,18.55
2019-05-26T03:29:37.967Z,18.54
2019-05-26T03:33:42.203Z,18.54
2019-05-26T03:37:46.408Z,18.56
2019-05-26T03:41:50.730Z,18.57
2019-05-26T03:46:17.954Z,18.60
2019-05-26T03:50:22.132Z,18.62
2019-05-26T03:54:26.515Z,18.63
2019-05-26T03:58:30.738Z,18.63
2019-05-26T04:02:34.993Z,18.62
2019-05-26T04:06:39.263Z,18.63
2019-05-26T04:10:43.487Z,18.60
2019-05-26T04:14:47.715Z,18.61
2019-05-26T04:18:51.963Z,18.60
2019-05-26T04:22:56.213Z,18.62
2019-05-26T04:27:00.455Z,18.65
2019-05-26T04:31:04.871Z,18.65
2019-05-26T04:35:09.271Z,18.70
2019-05-26T04:39:33.904Z,18.71
2019-05-26T04:43:38.159Z,18.66
2019-05-26T04:47:42.401Z,18.63
2019-05-26T04:51:46.661Z,18.63
2019-05-26T04:55:50.853Z,18.64
2019-05-26T04:59:55.092Z,18.66
2019-05-26T05:03:59.311Z,18.66
2019-05-26T05:08:03.621Z,18.69
2019-05-26T05:12:08.017Z,18.71
2019-05-26T05:16:12.293Z,18.73
2019-05-26T05:20:16.555Z,18.75
2019-05-26T05:24:20.824Z,18.77
2019-05-26T05:28:25.050Z,18.79
2019-05-26T05:32:32.750Z,18.85
2019-05-26T05:36:35.320Z,18.90
2019-05-26T05:40:39.892Z,18.98
2019-05-26T05:44:44.095Z,19.12
2019-05-26T05:48:48.337Z,19.30
2019-05-26T05:52:52.598Z,19.49
2019-05-26T05:56:56.819Z,19.70
2019-05-26T06:01:02.629Z,19.88
2019-05-26T06:05:07.441Z,20.11
2019-05-26T06:09:11.814Z,20.20
2019-05-26T06:13:16.093Z,20.26
2019-05-26T06:17:20.460Z,20.28
2019-05-26T06:21:25.687Z,20.27
2019-05-26T06:25:29.911Z,20.28
2019-05-26T06:29:34.270Z,20.30
2019-05-26T06:33:38.471Z,20.45
2019-05-26T06:37:42.690Z,20.58
2019-05-26T06:41:46.884Z,20.64
2019-05-26T06:45:51.162Z,20.73
2019-05-26T06:49:55.381Z,20.81
2019-05-26T06:53:59.639Z,20.94
2019-05-26T06:58:03.865Z,21.06
2019-05-26T07:02:08.139Z,21.18
2019-05-26T07:06:12.475Z,21.31
2019-05-26T07:10:17.938Z,21.44
2019-05-26T07:14:22.146Z,21.60
2019-05-26T07:18:26.422Z,21.70
2019-05-26T07:22:31.006Z,21.83
2019-05-26T07:26:35.375Z,21.94
2019-05-26T07:30:39.649Z,22.05
2019-05-26T07:34:43.902Z,22.19
2019-05-26T07:38:48.165Z,22.29
2019-05-26T07:42:52.577Z,22.39
2019-05-26T07:46:56.822Z,22.53
2019-05-26T07:51:01.047Z,22.62
2019-05-26T07:55:05.835Z,22.70
2019-05-26T07:59:10.028Z,22.80
2019-05-26T08:03:14.290Z,22.87
2019-05-26T08:07:18.691Z,23.04
2019-05-26T08:11:23.039Z,23.13
2019-05-26T08:15:27.670Z,22.99
2019-05-26T08:19:31.969Z,22.90
2019-05-26T08:23:36.208Z,22.81
2019-05-26T08:27:40.427Z,22.88
2019-05-26T08:31:44.812Z,23.03
2019-05-26T08:35:49.101Z,23.20
2019-05-26T08:39:53.301Z,23.29
2019-05-26T08:43:57.611Z,23.30
2019-05-26T08:48:01.923Z,23.37
2019-05-26T08:52:06.117Z,23.49
2019-05-26T08:56:10.356Z,23.57
2019-05-26T09:00:16.714Z,23.46
2019-05-26T09:04:20.991Z,23.40
2019-05-26T09:08:25.431Z,23.39
2019-05-26T09:12:29.637Z,23.42
2019-05-26T09:16:34.486Z,23.48
2019-05-26T09:20:39.248Z,23.48
2019-05-26T09:24:44.123Z,23.36
2019-05-26T09:28:49.990Z,23.25
2019-05-26T09:32:55.307Z,23.38
2019-05-26T09:37:00.077Z,23.47
2019-05-26T09:41:04.407Z,23.65
2019-05-26T09:45:09.202Z,23.74
2019-05-26T09:49:13.449Z,23.89
2019-05-26T09:53:17.998Z,24.02
2019-05-26T09:57:22.214Z,24.00
2019-05-26T10:01:26.496Z,24.02
2019-05-26T10:05:30.757Z,24.12
2019-05-26T10:09:35.357Z,24.06
2019-05-26T10:13:39.632Z,23.95
2019-05-26T10:17:44.290Z,23.97
2019-05-26T10:21:48.566Z,24.00
2019-05-26T10:25:52.794Z,23.99
2019-05-26T10:29:57.129Z,23.95
2019-05-26T10:34:01.370Z,23.90
2019-05-26T10:38:05.811Z,23.99
2019-05-26T10:42:10.188Z,24.06
2019-05-26T10:46:14.492Z,24.23
2019-05-26T10:50:18.946Z,24.50
2019-05-26T10:54:23.407Z,24.68
2019-05-26T10:58:28.227Z,24.76
2019-05-26T11:02:32.422Z,24.79
2019-05-26T11:06:37.107Z,24.68
2019-05-26T11:10:41.542Z,24.57
2019-05-26T11:14:46.020Z,24.52
2019-05-26T11:18:50.595Z,24.43
2019-05-26T11:22:54.882Z,24.52
2019-05-26T11:27:07.991Z,24.59
2019-05-26T11:31:05.488Z,24.76
2019-05-26T11:35:10.212Z,24.86
2019-05-26T11:39:14.487Z,24.96
2019-05-26T11:43:18.765Z,24.97
2019-05-26T11:47:23.015Z,25.06
2019-05-26T11:51:27.290Z,25.11
2019-05-26T11:55:31.588Z,25.21
2019-05-26T11:59:35.802Z,25.24
2019-05-26T12:03:40.041Z,25.31
2019-05-26T12:07:44.300Z,25.40
2019-05-26T12:11:48.530Z,25.34
2019-05-26T12:15:52.823Z,25.27
2019-05-26T12:19:57.086Z,25.35
2019-05-26T12:24:01.312Z,25.30
2019-05-26T12:28:05.646Z,25.24
2019-05-26T12:32:10.069Z,25.28
2019-05-26T12:36:14.753Z,25.29
2019-05-26T12:40:19.106Z,25.34
2019-05-26T12:44:23.440Z,25.34
2019-05-26T12:48:27.738Z,25.27
2019-05-26T12:52:32.071Z,25.27
2019-05-26T12:56:36.902Z,25.09
2019-05-26T13:00:48.646Z,25.13
2019-05-26T13:04:47.205Z,25.26
2019-05-26T13:08:51.488Z,25.23
2019-05-26T13:12:55.750Z,25.18
2019-05-26T13:17:01.617Z,25.07
2019-05-26T13:21:06.066Z,25.02
2019-05-26T13:25:11.104Z,25.14
2019-05-26T13:29:15.487Z,25.22
2019-05-26T13:33:19.722Z,25.21
2019-05-26T13:37:24.029Z,25.20
2019-05-26T13:41:28.243Z,25.35
2019-05-26T13:45:33.986Z,25.45
2019-05-26T13:49:39.604Z,25.43
2019-05-26T13:53:43.862Z,25.41
2019-05-26T13:57:49.531Z,25.47
2019-05-26T14:01:54.286Z,25.49
2019-05-26T14:05:58.549Z,25.47
2019-05-26T14:10:02.771Z,25.42
2019-05-26T14:14:07.501Z,25.40
2019-05-26T14:18:11.769Z,25.37
2019-05-26T14:22:16.134Z,25.37
2019-05-26T14:26:21.839Z,25.37
2019-05-26T14:30:26.158Z,25.37
2019-05-26T14:34:30.543Z,25.33
2019-05-26T14:38:43.175Z,25.29
2019-05-26T14:42:41.034Z,25.21
2019-05-26T14:46:45.260Z,25.19
2019-05-26T14:50:49.528Z,25.15
2019-05-26T14:54:53.822Z,25.11
2019-05-26T14:58:58.128Z,25.03
2019-05-26T15:03:02.392Z,24.98
2019-05-26T15:07:06.796Z,24.96
2019-05-26T15:11:11.383Z,24.91
2019-05-26T15:15:17.194Z,24.76
2019-05-26T15:19:21.496Z,24.53
2019-05-26T15:23:25.755Z,24.17
2019-05-26T15:27:30.033Z,23.88
2019-05-26T15:31:34.279Z,23.73
2019-05-26T15:35:38.639Z,23.67
2019-05-26T15:39:42.955Z,23.61
2019-05-26T15:43:47.242Z,23.59
2019-05-26T15:47:51.647Z,23.55
2019-05-26T15:51:55.879Z,23.52
2019-05-26T15:56:00.548Z,23.47
2019-05-26T16:00:05.894Z,23.39
2019-05-26T16:04:10.282Z,23.38
2019-05-26T16:08:15.014Z,23.39
2019-05-26T16:12:19.434Z,23.38
2019-05-26T16:16:38.183Z,23.36
2019-05-26T16:20:31.144Z,23.35
2019-05-26T16:24:35.645Z,23.33
2019-05-26T16:28:39.922Z,23.30
2019-05-26T16:32:44.384Z,23.23
2019-05-26T16:36:48.659Z,23.16
2019-05-26T16:40:52.907Z,23.10
2019-05-26T16:44:57.237Z,23.07
2019-05-26T16:49:01.489Z,22.97
2019-05-26T16:53:05.916Z,22.93
2019-05-26T16:57:10.176Z,22.86
2019-05-26T17:01:15.667Z,22.84
2019-05-26T17:05:19.952Z,22.83
2019-05-26T17:09:24.154Z,22.82
2019-05-26T17:13:28.408Z,22.80
2019-05-26T17:17:32.745Z,22.78
2019-05-26T17:21:37.234Z,22.78
2019-05-26T17:25:41.523Z,22.77
2019-05-26T17:29:45.793Z,22.73
2019-05-26T17:33:50.105Z,22.63
2019-05-26T17:37:55.407Z,22.56
2019-05-26T17:41:59.798Z,22.50
2019-05-26T17:46:04.436Z,22.46
2019-05-26T17:50:09.326Z,22.41
2019-05-26T17:54:13.636Z,22.38
2019-05-26T17:58:17.922Z,22.34
2019-05-26T18:02:22.357Z,22.31
2019-05-26T18:06:26.785Z,22.27
2019-05-26T18:10:31.439Z,22.22
2019-05-26T18:14:36.305Z,22.19
2019-05-26T18:18:40.810Z,22.12
2019-05-26T18:22:45.082Z,22.04
2019-05-26T18:26:49.362Z,22.01
2019-05-26T18:30:53.757Z,22.00
2019-05-26T18:34:58.480Z,21.96
2019-05-26T18:39:02.908Z,21.92
2019-05-26T18:43:07.294Z,21.87
2019-05-26T18:47:11.718Z,21.84
2019-05-26T18:51:16.177Z,21.76
2019-05-26T18:55:20.752Z,21.63
2019-05-26T18:59:24.964Z,21.57
2019-05-26T19:03:29.204Z,21.52
2019-05-26T19:07:33.556Z,21.48
2019-05-26T19:11:37.818Z,21.47
2019-05-26T19:15:42.103Z,21.45
2019-05-26T19:19:46.622Z,21.45
2019-05-26T19:23:51.238Z,21.43
2019-05-26T19:27:55.532Z,21.41
2019-05-26T19:31:59.784Z,21.38
2019-05-26T19:36:09.050Z,21.37
2019-05-26T19:40:11.156Z,21.33
2019-05-26T19:44:15.555Z,21.29
2019-05-26T19:48:35.025Z,21.27
2019-05-26T19:52:28.317Z,21.24
2019-05-26T19:56:41.142Z,21.24
2019-05-26T20:00:47.274Z,21.21
2019-05-26T20:04:51.898Z,21.20
2019-05-26T20:09:00.097Z,21.20
2019-05-26T20:13:40.378Z,21.20
2019-05-26T20:17:48.995Z,21.16
2019-05-26T20:22:09.268Z,21.12
2019-05-26T20:26:14.462Z,21.08
2019-05-26T20:30:33.523Z,21.05
2019-05-26T20:34:49.353Z,21.01
2019-05-26T20:38:57.632Z,20.96
2019-05-26T20:43:02.839Z,20.92
2019-05-26T20:47:07.136Z,20.88
2019-05-26T20:51:11.344Z,20.85
2019-05-26T20:55:15.943Z,20.81
2019-05-26T20:59:20.493Z,20.77
2019-05-26T21:03:24.803Z,20.72
2019-05-26T21:07:29.898Z,20.69
2019-05-26T21:11:34.276Z,20.64
2019-05-26T21:15:38.601Z,20.62
2019-05-26T21:19:43.002Z,20.58
2019-05-26T21:23:47.303Z,20.55
2019-05-26T21:27:54.824Z,20.54
2019-05-26T21:31:59.061Z,20.50
2019-05-26T21:36:03.378Z,20.47
2019-05-26T21:40:08.665Z,20.42
2019-05-26T21:44:13.064Z,20.39
2019-05-26T21:48:17.317Z,20.36
2019-05-26T21:52:21.613Z,20.39
2019-05-26T21:56:25.937Z,20.39
2019-05-26T22:00:32.702Z,20.37
2019-05-26T22:04:37.710Z,20.31
2019-05-26T22:08:41.950Z,20.28
2019-05-26T22:12:46.189Z,20.26
2019-05-26T22:16:50.444Z,20.27
2019-05-26T22:25:09.036Z,20.26
2019-05-26T22:29:13.371Z,20.24
2019-05-26T22:33:17.851Z,20.20
2019-05-26T22:37:22.215Z,20.15
2019-05-26T22:41:27.578Z,20.10
2019-05-26T22:45:32.117Z,20.09
2019-05-26T22:49:36.944Z,20.09
2019-05-26T22:53:41.313Z,20.10
2019-05-26T22:57:45.758Z,20.09
2019-05-26T23:01:50.128Z,20.05
2019-05-26T23:05:55.021Z,20.00
2019-05-26T23:10:02.594Z,19.96
2019-05-26T23:14:05.758Z,19.93
2019-05-26T23:18:10.166Z,19.90
2019-05-26T23:22:14.607Z,19.84
2019-05-26T23:26:18.962Z,19.82
2019-05-26T23:30:23.645Z,19.82
2019-05-26T23:34:27.995Z,19.81
2019-05-26T23:38:33.413Z,19.83
2019-05-26T23:42:37.772Z,19.80
2019-05-26T23:46:42.140Z,19.77
2019-05-26T23:50:46.618Z,19.76
2019-05-26T23:54:50.940Z,19.76
2019-05-26T23:58:55.469Z,19.76
